Time;durP1;ratioP1;P1;durP2;ratioP2;P2;SDS_P1;SDS_P2;PMS_P1;PMS_P2;Temp;Humidity;BMP_temperature;BMP_pressure;BME280_temperature;BME280_humidity;BME280_pressure;Samples;Min_cycle;Max_cycle;Signal;HPM_P1;HPM_P2
2023/08/28 00:00:46;;;;;;;26.73;16.13;;;11.30;99.90;;;;;;5052848;28;20041;-70
2023/08/28 00:03:12;;;;;;;20.90;15.02;;;11.30;99.90;;;;;;5052068;28;20520;-70
2023/08/28 00:05:38;;;;;;;23.50;16.08;;;11.20;99.90;;;;;;5053291;28;20025;-69
2023/08/28 00:08:04;;;;;;;20.50;14.80;;;11.30;99.90;;;;;;5053238;28;20025;-70
2023/08/28 00:10:31;;;;;;;23.13;15.95;;;11.30;99.90;;;;;;5054286;28;20379;-70
2023/08/28 00:12:57;;;;;;;17.23;14.10;;;11.30;99.90;;;;;;5057204;28;20033;-70
2023/08/28 00:15:23;;;;;;;20.65;16.25;;;11.20;99.90;;;;;;5057143;28;20418;-69
2023/08/28 00:17:48;;;;;;;24.23;17.48;;;11.30;99.90;;;;;;5056790;28;20029;-70
2023/08/28 00:20:16;;;;;;;28.05;20.17;;;11.30;99.90;;;;;;5056484;28;20088;-70
2023/08/28 00:22:41;;;;;;;30.33;21.70;;;11.50;99.90;;;;;;5056200;28;20053;-69
2023/08/28 00:25:08;;;;;;;34.22;20.30;;;11.60;99.90;;;;;;5056412;28;20048;-70
2023/08/28 00:27:34;;;;;;;33.03;23.05;;;11.70;99.90;;;;;;5056327;28;20383;-70
2023/08/28 00:30:00;;;;;;;33.83;23.55;;;11.80;99.90;;;;;;5056817;28;20021;-71
2023/08/28 00:32:26;;;;;;;31.52;21.55;;;12.00;99.90;;;;;;5056874;28;20025;-70
2023/08/28 00:34:53;;;;;;;29.23;20.95;;;12.10;99.90;;;;;;5056671;28;20025;-71
2023/08/28 00:37:19;;;;;;;30.45;20.88;;;12.20;99.90;;;;;;5055754;28;20032;-70
2023/08/28 00:39:44;;;;;;;26.80;20.13;;;12.20;99.90;;;;;;5056468;28;20029;-70
2023/08/28 00:42:10;;;;;;;21.40;17.45;;;12.20;99.90;;;;;;5056301;28;20120;-70
2023/08/28 00:44:35;;;;;;;22.10;16.60;;;12.10;99.90;;;;;;5056191;28;20032;-70
2023/08/28 00:47:02;;;;;;;21.70;16.95;;;11.90;99.90;;;;;;5055527;28;20018;-70
2023/08/28 00:49:29;;;;;;;23.45;15.85;;;11.80;99.90;;;;;;5056479;28;20036;-70
2023/08/28 00:51:55;;;;;;;24.20;17.63;;;11.80;99.90;;;;;;5056181;28;20067;-70
2023/08/28 00:54:21;;;;;;;24.70;17.52;;;11.80;99.90;;;;;;5055716;28;20506;-69
2023/08/28 00:56:48;;;;;;;23.02;16.42;;;11.70;99.90;;;;;;5055672;28;20029;-70
2023/08/28 00:59:15;;;;;;;21.50;16.38;;;11.70;99.90;;;;;;5056241;28;20060;-70
2023/08/28 01:01:41;;;;;;;25.30;17.63;;;11.70;99.90;;;;;;5055956;28;20035;-70
2023/08/28 01:04:07;;;;;;;23.10;18.35;;;11.60;99.90;;;;;;5055002;28;20521;-70
2023/08/28 01:06:56;;;;;;;24.23;18.48;;;11.60;99.90;;;;;;5056246;28;20056;-69
2023/08/28 01:12:27;;;;;;;21.25;15.52;;;11.60;99.90;;;;;;5091651;28;20377;-69
2023/08/28 01:17:31;;;;;;;16.48;13.80;;;11.40;99.90;;;;;;5111999;27;20380;-71
2023/08/28 01:19:59;;;;;;;16.95;13.15;;;11.40;99.90;;;;;;5111893;28;20032;-71
2023/08/28 01:22:35;;;;;;;18.30;13.30;;;11.30;99.90;;;;;;5112109;28;20067;-71
2023/08/28 01:25:09;;;;;;;19.80;14.00;;;11.30;99.90;;;;;;5111596;28;20030;-71
2023/08/28 01:27:37;;;;;;;19.55;14.93;;;11.20;99.90;;;;;;5111528;28;20381;-72
2023/08/28 01:30:05;;;;;;;21.38;15.25;;;11.20;99.90;;;;;;5111756;28;20024;-71
2023/08/28 01:32:31;;;;;;;19.75;15.45;;;11.10;99.90;;;;;;5111406;28;20027;-71
2023/08/28 01:34:58;;;;;;;19.73;14.45;;;11.20;99.90;;;;;;5111413;28;20073;-71
2023/08/28 01:37:30;;;;;;;18.55;15.40;;;11.10;99.90;;;;;;5110697;28;20027;-71
2023/08/28 01:40:00;;;;;;;18.85;15.00;;;11.10;99.90;;;;;;5111414;27;20073;-68
2023/08/28 01:42:28;;;;;;;19.02;15.00;;;11.00;99.90;;;;;;5111430;28;20381;-69
2023/08/28 01:44:55;;;;;;;19.40;14.75;;;11.00;99.90;;;;;;5111696;28;20030;-69
2023/08/28 01:47:23;;;;;;;16.58;14.25;;;11.00;99.90;;;;;;5110855;28;20030;-69
2023/08/28 01:49:53;;;;;;;20.70;14.20;;;11.00;99.90;;;;;;5111084;28;20024;-69
2023/08/28 01:52:18;;;;;;;17.15;13.90;;;11.00;99.90;;;;;;5111244;28;20035;-69
2023/08/28 01:54:44;;;;;;;19.15;15.77;;;11.00;99.90;;;;;;5110277;28;20019;-69
2023/08/28 01:57:10;;;;;;;20.67;14.02;;;11.00;99.90;;;;;;5110861;28;20066;-68
2023/08/28 01:59:35;;;;;;;16.75;12.88;;;11.00;99.90;;;;;;5111450;28;20028;-68
2023/08/28 02:02:01;;;;;;;17.75;13.32;;;10.90;99.90;;;;;;5111104;28;20020;-69
2023/08/28 02:04:27;;;;;;;15.13;12.43;;;10.90;99.90;;;;;;5111349;28;20365;-68
2023/08/28 02:06:52;;;;;;;14.55;11.98;;;11.00;99.90;;;;;;5110947;28;20024;-68
2023/08/28 02:09:18;;;;;;;16.15;13.27;;;10.90;99.90;;;;;;5110868;28;20430;-69
2023/08/28 02:11:43;;;;;;;18.98;14.48;;;10.90;99.90;;;;;;5111230;28;20072;-69
2023/08/28 02:14:09;;;;;;;18.52;15.13;;;10.90;99.90;;;;;;5110033;28;20031;-68
2023/08/28 02:16:38;;;;;;;17.33;14.15;;;10.90;99.90;;;;;;5110095;28;20051;-69
2023/08/28 02:19:04;;;;;;;14.50;13.00;;;10.90;99.90;;;;;;5111072;28;20446;-69
2023/08/28 02:21:30;;;;;;;17.38;15.10;;;10.80;99.90;;;;;;5110601;28;20027;-68
2023/08/28 02:23:56;;;;;;;17.30;14.55;;;10.80;99.90;;;;;;5110389;28;20389;-69
2023/08/28 02:26:21;;;;;;;17.48;13.90;;;10.80;99.90;;;;;;5110294;28;20055;-69
2023/08/28 02:28:47;;;;;;;17.27;13.88;;;10.80;99.90;;;;;;5097064;28;20422;-69
2023/08/28 02:31:13;;;;;;;19.38;14.38;;;10.80;99.90;;;;;;5096732;28;20085;-69
2023/08/28 02:33:38;;;;;;;18.45;13.88;;;10.70;99.90;;;;;;5097064;28;20068;-70
2023/08/28 02:36:04;;;;;;;15.48;12.63;;;10.80;99.90;;;;;;5096632;28;20405;-70
2023/08/28 02:38:30;;;;;;;16.52;14.70;;;10.70;99.90;;;;;;5096483;28;20038;-70
2023/08/28 02:41:04;;;;;;;21.45;14.93;;;10.70;99.90;;;;;;5096961;28;20390;-75
2023/08/28 02:43:30;;;;;;;18.00;14.63;;;10.70;99.90;;;;;;5096653;28;20048;-75
2023/08/28 02:45:56;;;;;;;18.73;14.55;;;10.70;99.90;;;;;;5096625;28;20028;-70
2023/08/28 02:48:22;;;;;;;17.80;13.57;;;10.70;99.90;;;;;;5096827;28;20480;-70
2023/08/28 02:50:49;;;;;;;16.45;13.35;;;10.70;99.90;;;;;;5096476;28;20027;-70
2023/08/28 02:53:15;;;;;;;27.60;17.83;;;10.60;99.90;;;;;;5096844;28;20114;-70
2023/08/28 02:55:41;;;;;;;21.80;16.23;;;10.60;99.90;;;;;;5096412;28;20032;-70
2023/08/28 02:58:08;;;;;;;22.15;16.55;;;10.60;99.90;;;;;;5096633;28;20024;-70
2023/08/28 03:00:35;;;;;;;21.42;15.52;;;10.60;99.90;;;;;;5096623;28;20388;-70
2023/08/28 03:03:01;;;;;;;22.67;16.30;;;10.60;99.90;;;;;;5096620;28;20460;-70
2023/08/28 03:05:27;;;;;;;20.77;16.50;;;10.60;99.90;;;;;;5096495;28;20074;-70
2023/08/28 03:07:53;;;;;;;21.27;15.57;;;10.60;99.90;;;;;;5096557;28;20058;-69
2023/08/28 03:10:18;;;;;;;20.40;15.25;;;10.60;99.90;;;;;;5096521;28;20461;-69
2023/08/28 03:12:44;;;;;;;18.88;13.95;;;10.50;99.90;;;;;;5096386;28;20032;-69
2023/08/28 03:15:10;;;;;;;20.20;15.40;;;10.50;99.90;;;;;;5095883;28;20407;-69
2023/08/28 03:17:35;;;;;;;25.23;18.45;;;10.50;99.90;;;;;;5096397;28;20032;-69
2023/08/28 03:20:01;;;;;;;21.10;16.75;;;10.50;99.90;;;;;;5096251;28;20035;-69
2023/08/28 03:22:26;;;;;;;20.95;15.40;;;10.50;99.90;;;;;;5096154;28;20362;-69
2023/08/28 03:24:52;;;;;;;17.17;14.38;;;10.50;99.90;;;;;;5096172;28;20039;-67
2023/08/28 03:27:19;;;;;;;17.83;15.25;;;10.40;99.90;;;;;;5095620;28;20359;-67
2023/08/28 03:29:45;;;;;;;20.65;14.80;;;10.40;99.90;;;;;;5095252;28;20393;-74
2023/08/28 03:32:11;;;;;;;18.48;15.18;;;10.40;99.90;;;;;;5096013;28;20020;-67
2023/08/28 03:34:36;;;;;;;20.63;15.27;;;10.40;99.90;;;;;;5095934;28;20039;-67
2023/08/28 03:37:02;;;;;;;17.75;14.40;;;10.30;99.90;;;;;;5095354;28;20028;-67
2023/08/28 03:39:27;;;;;;;24.77;16.42;;;10.30;99.90;;;;;;5094491;28;20047;-67
2023/08/28 03:41:53;;;;;;;19.15;15.20;;;10.30;99.90;;;;;;5095878;28;20032;-66
2023/08/28 03:44:19;;;;;;;20.17;15.80;;;10.30;99.90;;;;;;5095558;28;20035;-67
2023/08/28 03:46:44;;;;;;;19.77;15.05;;;10.20;99.90;;;;;;5095820;28;20060;-67
2023/08/28 03:49:10;;;;;;;17.65;14.20;;;10.20;99.90;;;;;;5095658;28;20025;-67
2023/08/28 03:51:35;;;;;;;19.85;14.65;;;10.20;99.90;;;;;;5095506;28;20055;-67
2023/08/28 03:54:02;;;;;;;17.65;13.90;;;10.20;99.90;;;;;;5095602;28;20042;-67
2023/08/28 03:56:29;;;;;;;14.45;12.85;;;10.20;99.90;;;;;;5095109;28;20059;-66
2023/08/28 03:58:55;;;;;;;16.92;12.98;;;10.10;99.90;;;;;;5095715;28;20396;-66
2023/08/28 04:01:21;;;;;;;19.38;14.60;;;10.10;99.90;;;;;;5094798;28;20377;-66
2023/08/28 04:03:47;;;;;;;18.98;13.88;;;10.10;99.90;;;;;;5095442;28;20028;-67
2023/08/28 04:06:12;;;;;;;21.77;15.63;;;10.20;99.90;;;;;;5095392;28;20095;-67
2023/08/28 04:08:38;;;;;;;29.58;16.83;;;10.10;99.90;;;;;;5095162;28;20032;-67
2023/08/28 04:11:04;;;;;;;22.52;16.30;;;10.20;99.90;;;;;;5094432;28;20020;-67
2023/08/28 04:13:29;;;;;;;19.88;15.23;;;10.20;99.90;;;;;;5095181;28;20062;-67
2023/08/28 04:15:56;;;;;;;17.90;13.77;;;10.10;99.90;;;;;;5094621;28;20564;-67
2023/08/28 04:18:21;;;;;;;23.90;16.88;;;10.10;99.90;;;;;;5094894;28;20035;-66
2023/08/28 04:20:47;;;;;;;27.48;19.92;;;10.10;99.90;;;;;;5095069;28;20408;-66
2023/08/28 04:23:13;;;;;;;31.13;20.33;;;10.20;99.90;;;;;;5095144;28;20028;-68
2023/08/28 04:25:38;;;;;;;26.85;19.80;;;10.30;99.90;;;;;;5094499;28;20028;-66
2023/08/28 04:28:04;;;;;;;37.20;23.08;;;10.30;99.90;;;;;;5095012;28;20035;-66
2023/08/28 04:30:30;;;;;;;29.45;20.55;;;10.40;99.90;;;;;;5094355;28;20427;-66
2023/08/28 04:32:55;;;;;;;29.45;20.98;;;10.40;99.90;;;;;;5094984;28;20039;-66
2023/08/28 04:35:21;;;;;;;29.08;20.50;;;10.40;99.90;;;;;;5094755;28;20351;-66
2023/08/28 04:37:47;;;;;;;29.98;19.98;;;10.40;99.90;;;;;;5094827;28;20031;-66
2023/08/28 04:40:12;;;;;;;39.90;23.05;;;10.40;99.90;;;;;;5094805;28;20035;-66
2023/08/28 04:42:38;;;;;;;31.13;22.05;;;10.40;99.90;;;;;;5094065;28;20016;-66
2023/08/28 04:45:04;;;;;;;29.80;20.77;;;10.50;99.90;;;;;;5094673;28;20098;-66
2023/08/28 04:47:30;;;;;;;26.65;20.45;;;10.40;99.90;;;;;;5094490;28;20040;-67
2023/08/28 04:49:55;;;;;;;29.88;21.90;;;10.40;99.90;;;;;;5093974;28;20485;-68
2023/08/28 04:52:22;;;;;;;31.17;21.83;;;10.40;99.90;;;;;;5094544;28;20028;-67
2023/08/28 04:54:48;;;;;;;33.75;22.90;;;10.50;99.90;;;;;;5094270;28;20039;-67
2023/08/28 04:57:13;;;;;;;38.50;24.23;;;10.50;99.90;;;;;;5094195;28;20525;-67
2023/08/28 04:59:39;;;;;;;33.13;21.40;;;10.50;99.90;;;;;;5093953;28;20071;-70
2023/08/28 05:02:05;;;;;;;29.15;21.10;;;10.60;99.90;;;;;;5094523;28;20032;-67
2023/08/28 05:04:30;;;;;;;29.25;20.60;;;10.60;99.90;;;;;;5094485;28;20412;-67
2023/08/28 05:06:56;;;;;;;27.58;19.10;;;10.60;99.90;;;;;;5093800;28;20027;-67
2023/08/28 05:09:22;;;;;;;26.88;18.92;;;10.60;99.90;;;;;;5093922;28;20510;-66
2023/08/28 05:11:47;;;;;;;28.77;19.15;;;10.60;99.90;;;;;;5094376;28;20062;-66
2023/08/28 05:14:13;;;;;;;28.02;19.83;;;10.80;99.90;;;;;;5093367;28;20059;-66
2023/08/28 05:16:38;;;;;;;27.40;20.98;;;10.80;99.90;;;;;;5093360;28;20059;-68
2023/08/28 05:19:04;;;;;;;34.25;24.10;;;10.90;99.90;;;;;;5091071;28;20021;-68
2023/08/28 05:21:30;;;;;;;39.17;25.35;;;11.10;99.90;;;;;;5092622;28;20024;-68
2023/08/28 05:23:55;;;;;;;35.78;24.40;;;11.20;99.90;;;;;;5092911;28;20132;-69
2023/08/28 05:26:21;;;;;;;29.35;20.63;;;11.30;99.90;;;;;;5093058;28;20036;-68
2023/08/28 05:28:46;;;;;;;27.27;21.27;;;11.40;99.90;;;;;;5094124;28;20036;-68
2023/08/28 05:31:12;;;;;;;26.90;20.27;;;11.50;99.90;;;;;;5093919;28;20058;-68
2023/08/28 05:33:37;;;;;;;31.30;23.13;;;11.60;99.90;;;;;;5094139;28;20024;-69
2023/08/28 05:36:03;;;;;;;36.45;26.42;;;11.60;99.90;;;;;;5094025;28;20024;-68
2023/08/28 05:38:30;;;;;;;36.20;24.90;;;11.70;99.90;;;;;;5093956;28;20370;-68
2023/08/28 05:40:55;;;;;;;27.38;21.23;;;11.80;99.90;;;;;;5094033;28;20359;-70
2023/08/28 05:43:21;;;;;;;30.08;21.38;;;11.90;99.90;;;;;;5094095;28;20084;-69
2023/08/28 05:45:47;;;;;;;34.25;23.52;;;12.20;99.90;;;;;;5093625;28;20032;-69
2023/08/28 05:48:13;;;;;;;31.02;23.58;;;12.40;99.90;;;;;;5093325;28;20035;-71
2023/08/28 05:50:39;;;;;;;26.67;19.17;;;13.00;99.90;;;;;;5093761;28;20028;-71
2023/08/28 05:53:06;;;;;;;25.58;17.17;;;13.30;99.90;;;;;;5093729;28;20032;-74
2023/08/28 05:55:32;;;;;;;21.15;15.02;;;13.90;99.90;;;;;;5093427;28;20469;-72
2023/08/28 05:57:58;;;;;;;19.02;11.98;;;14.10;99.90;;;;;;5093565;28;20024;-72
2023/08/28 06:00:25;;;;;;;18.92;10.75;;;14.60;99.90;;;;;;5093564;28;20054;-72
2023/08/28 06:02:51;;;;;;;15.18;10.45;;;;;;;;;;5086037;28;20119;-72
2023/08/28 06:05:17;;;;;;;10.38;9.23;;;15.70;99.90;;;;;;5085206;28;20031;-71
2023/08/28 06:07:43;;;;;;;11.48;8.57;;;16.30;99.90;;;;;;5082690;28;20028;-71
2023/08/28 06:10:11;;;;;;;10.57;7.72;;;16.80;99.90;;;;;;5096002;28;20386;-71
2023/08/28 06:12:37;;;;;;;11.65;7.45;;;17.50;99.90;;;;;;5096844;28;20523;-72
2023/08/28 06:15:02;;;;;;;11.00;7.90;;;17.80;31.30;;;;;;5094927;28;20111;-70
2023/08/28 06:17:28;;;;;;;12.23;7.43;;;17.70;2.10;;;;;;5091508;28;20036;-70
2023/08/28 06:19:54;;;;;;;12.63;8.27;;;17.90;1.00;;;;;;5093490;28;20034;-70
2023/08/28 06:22:19;;;;;;;11.65;8.05;;;17.40;1.00;;;;;;5085994;28;20374;-71
2023/08/28 06:24:50;;;;;;;11.23;7.32;;;17.50;1.00;;;;;;5091848;28;20055;-70
2023/08/28 06:27:15;;;;;;;15.20;8.30;;;17.80;1.00;;;;;;5087350;28;20028;-70
2023/08/28 06:29:41;;;;;;;13.80;8.18;;;18.20;1.00;;;;;;5087815;28;20411;-73
2023/08/28 06:32:07;;;;;;;10.00;8.07;;;18.60;1.00;;;;;;5089574;28;20090;-69
2023/08/28 06:34:32;;;;;;;14.48;7.63;;;18.60;1.00;;;;;;5079603;28;20036;-69
2023/08/28 06:36:58;;;;;;;15.25;9.07;;;18.70;1.00;;;;;;5079719;28;20036;-67
2023/08/28 06:39:23;;;;;;;10.10;8.63;;;18.30;1.00;;;;;;5100345;28;20036;-69
2023/08/28 06:41:49;;;;;;;11.80;8.50;;;18.40;1.00;;;;;;5080776;28;20030;-67
2023/08/28 06:44:14;;;;;;;11.98;8.93;;;18.70;1.00;;;;;;5082969;28;20052;-69
2023/08/28 06:46:40;;;;;;;15.23;10.73;;;18.60;1.00;;;;;;5090021;28;20032;-69
2023/08/28 06:49:06;;;;;;;14.13;10.32;;;18.40;1.00;;;;;;5097521;28;20519;-70
2023/08/28 06:51:31;;;;;;;13.65;11.30;;;18.30;1.00;;;;;;5090792;28;20062;-70
2023/08/28 06:53:57;;;;;;;11.82;10.55;;;18.30;1.00;;;;;;5084750;28;20130;-69
2023/08/28 06:56:22;;;;;;;12.75;9.65;;;19.20;99.90;;;;;;5088002;28;20036;-69
2023/08/28 06:58:48;;;;;;;11.73;8.80;;;18.80;1.00;;;;;;5084216;28;20105;-69
2023/08/28 07:01:14;;;;;;;10.20;8.10;;;19.20;1.00;;;;;;5083086;28;20031;-70
2023/08/28 07:03:40;;;;;;;11.98;8.38;;;19.70;99.90;;;;;;5084009;28;20718;-70
2023/08/28 07:06:05;;;;;;;11.40;7.80;;;19.80;99.90;;;;;;5089847;28;20481;-70
2023/08/28 07:08:31;;;;;;;10.05;8.05;;;19.80;99.90;;;;;;5093554;28;20024;-69
2023/08/28 07:10:57;;;;;;;12.50;8.30;;;20.10;99.90;;;;;;5094510;28;20512;-68
2023/08/28 07:13:22;;;;;;;13.45;8.10;;;20.30;99.90;;;;;;5091708;28;20147;-72
2023/08/28 07:18:27;;;;;;;11.38;8.82;;;19.90;99.90;;;;;;5075607;28;20904;-68
2023/08/28 07:20:53;;;;;;;11.75;9.18;;;19.90;99.90;;;;;;5063547;28;20528;-67
2023/08/28 07:23:19;;;;;;;12.13;9.35;;;19.80;99.90;;;;;;5061985;28;20032;-68
2023/08/28 07:25:45;;;;;;;12.43;9.55;;;19.40;99.90;;;;;;5065152;28;20398;-68
2023/08/28 07:28:11;;;;;;;15.50;9.20;;;19.60;99.90;;;;;;5060873;28;21138;-64
2023/08/28 07:30:37;;;;;;;12.70;10.15;;;20.00;99.90;;;;;;5060509;28;20055;-64
2023/08/28 07:33:03;;;;;;;15.50;9.35;;;19.10;1.00;;;;;;5064923;28;20055;-64
2023/08/28 07:35:34;;;;;;;10.75;8.70;;;19.40;1.00;;;;;;5070292;28;20033;-64
2023/08/28 07:38:03;;;;;;;16.23;9.52;;;20.00;99.90;;;;;;5059884;28;20021;-64
2023/08/28 07:40:28;;;;;;;12.88;9.65;;;19.50;99.90;;;;;;5063538;28;20036;-64
2023/08/28 07:42:54;;;;;;;12.40;9.88;;;19.90;99.90;;;;;;5063995;28;20033;-64
2023/08/28 07:45:19;;;;;;;17.52;10.15;;;19.80;99.90;;;;;;5052652;28;20033;-64
2023/08/28 07:47:45;;;;;;;17.60;9.98;;;19.30;99.90;;;;;;5058794;28;20053;-64
2023/08/28 07:50:11;;;;;;;14.35;9.20;;;19.40;1.00;;;;;;5065952;28;20020;-64
2023/08/28 07:52:36;;;;;;;15.95;9.57;;;19.50;1.00;;;;;;5059485;28;20037;-64
2023/08/28 07:55:02;;;;;;;15.90;9.48;;;19.60;99.90;;;;;;5056522;28;20104;-64
2023/08/28 07:57:28;;;;;;;12.63;9.15;;;19.80;99.90;;;;;;5056967;28;20075;-65
2023/08/28 07:59:54;;;;;;;18.27;10.18;;;20.30;99.90;;;;;;5062691;28;20104;-64
2023/08/28 08:02:20;;;;;;;10.95;9.02;;;20.60;99.90;;;;;;5063624;28;20112;-65
2023/08/28 08:04:45;;;;;;;16.90;10.00;;;20.90;1.00;;;;;;5060058;28;20041;-65
2023/08/28 08:07:11;;;;;;;15.57;9.70;;;21.10;1.00;;;;;;5059952;28;20457;-65
2023/08/28 08:09:36;;;;;;;15.05;9.85;;;21.00;1.00;;;;;;5056686;28;20036;-64
2023/08/28 08:12:02;;;;;;;14.13;9.50;;;20.70;99.90;;;;;;5064891;28;20103;-64
2023/08/28 08:14:28;;;;;;;12.23;8.82;;;21.30;10.50;;;;;;5059600;28;20429;-64
2023/08/28 08:16:53;;;;;;;10.02;7.80;;;22.40;1.00;;;;;;5064026;28;20148;-65
2023/08/28 08:19:19;;;;;;;11.02;8.57;;;22.50;99.90;;;;;;5065684;28;20056;-65
2023/08/28 08:21:44;;;;;;;14.07;8.48;;;22.60;1.00;;;;;;5062500;28;20035;-65
2023/08/28 08:24:10;;;;;;;10.55;8.35;;;22.20;99.90;;;;;;5057241;28;20502;-65
2023/08/28 08:26:36;;;;;;;9.68;8.30;;;22.20;1.00;;;;;;5060636;28;20029;-65
2023/08/28 08:29:01;;;;;;;11.68;8.60;;;21.40;99.90;;;;;;5048969;28;20029;-67
2023/08/28 08:31:27;;;;;;;8.70;7.68;;;21.10;99.90;;;;;;5040170;28;20064;-69
2023/08/28 08:33:53;;;;;;;10.73;8.70;;;21.60;99.90;;;;;;5043213;28;20119;-67
2023/08/28 08:36:18;;;;;;;10.23;8.30;;;21.60;99.90;;;;;;5047176;28;20186;-67
2023/08/28 08:38:44;;;;;;;12.27;8.25;;;21.90;99.90;;;;;;5052830;28;20055;-68
2023/08/28 08:41:10;;;;;;;12.25;7.53;;;22.80;99.90;;;;;;5043325;28;20116;-68
2023/08/28 08:43:37;;;;;;;9.85;8.07;;;23.70;99.90;;;;;;5040075;28;20116;-68
2023/08/28 08:46:05;;;;;;;8.05;6.95;;;24.50;43.40;;;;;;5045119;28;20152;-67
2023/08/28 08:48:36;;;;;;;12.20;6.38;;;23.30;99.90;;;;;;5048558;28;20565;-72
2023/08/28 08:51:04;;;;;;;12.32;7.18;;;22.30;99.90;;;;;;5047710;28;20111;-67
2023/08/28 08:53:56;;;;;;;7.07;6.38;;;22.20;99.90;;;;;;5051336;28;20479;-67
2023/08/28 08:56:23;;;;;;;11.00;6.20;;;22.60;99.90;;;;;;5049068;28;20102;-68
2023/08/28 08:58:50;;;;;;;9.30;6.63;;;23.20;99.90;;;;;;5044390;28;20032;-73
2023/08/28 09:01:17;;;;;;;8.10;6.60;;;22.80;99.90;;;;;;5055915;28;20534;-68
2023/08/28 09:03:43;;;;;;;9.05;6.80;;;22.70;99.90;;;;;;5046723;28;20030;-67
2023/08/28 09:06:10;;;;;;;8.75;7.05;;;21.90;1.00;;;;;;5049760;28;20116;-68
2023/08/28 09:08:39;;;;;;;8.40;6.53;;;21.40;99.90;;;;;;5053078;28;20200;-69
2023/08/28 09:11:05;;;;;;;7.38;6.55;;;22.40;1.00;;;;;;5047491;28;20024;-69
2023/08/28 09:13:31;;;;;;;7.53;6.72;;;22.50;99.90;;;;;;5045086;28;20025;-67
2023/08/28 09:15:57;;;;;;;7.85;6.68;;;22.50;1.00;;;;;;5050849;28;20025;-69
2023/08/28 09:18:25;;;;;;;11.20;6.57;;;22.70;99.90;;;;;;5052849;28;20086;-69
2023/08/28 09:21:07;;;;;;;11.60;7.03;;;22.70;99.90;;;;;;5039076;28;20465;-69
2023/08/28 09:23:33;;;;;;;9.73;6.80;;;22.30;22.20;;;;;;5038055;28;20068;-69
2023/08/28 09:25:59;;;;;;;11.15;7.28;;;21.90;99.90;;;;;;5044252;28;20021;-67
2023/08/28 09:28:26;;;;;;;7.93;5.90;;;21.60;1.00;;;;;;5035563;28;20047;-67
2023/08/28 09:30:51;;;;;;;7.43;6.40;;;21.80;99.90;;;;;;5050625;28;20537;-69
2023/08/28 09:33:17;;;;;;;9.27;5.97;;;21.50;34.80;;;;;;5044290;28;20111;-68
2023/08/28 09:35:44;;;;;;;7.13;5.30;;;22.20;1.00;;;;;;5049773;28;20032;-68
2023/08/28 09:38:10;;;;;;;6.03;5.32;;;22.60;99.90;;;;;;5049004;28;20480;-68
2023/08/28 09:40:39;;;;;;;7.75;4.65;;;22.50;99.90;;;;;;5047064;28;20063;-67
2023/08/28 09:43:13;;;;;;;8.73;5.57;;;22.80;99.90;;;;;;5041998;28;20127;-68
2023/08/28 09:45:40;;;;;;;6.80;5.40;;;22.70;1.00;;;;;;5047262;28;20021;-67
2023/08/28 09:48:07;;;;;;;8.55;5.75;;;22.20;99.90;;;;;;5045429;28;20060;-67
2023/08/28 09:50:34;;;;;;;7.63;5.13;;;20.90;99.90;;;;;;5046217;28;20482;-70
2023/08/28 09:53:10;;;;;;;6.60;4.93;;;20.30;99.90;;;;;;5047930;28;20024;-68
2023/08/28 09:55:38;;;;;;;6.55;4.53;;;19.90;1.00;;;;;;5050273;28;20262;-67
2023/08/28 09:58:11;;;;;;;8.70;4.70;;;20.40;99.90;;;;;;5044866;28;20042;-67
2023/08/28 10:00:39;;;;;;;4.97;3.88;;;20.80;99.90;;;;;;5049994;28;20043;-68
2023/08/28 10:03:08;;;;;;;7.80;4.70;;;20.90;99.90;;;;;;5042554;28;20104;-70
2023/08/28 10:05:37;;;;;;;8.73;4.20;;;21.20;1.00;;;;;;5048562;28;20490;-68
2023/08/28 10:08:05;;;;;;;4.70;2.95;;;21.20;99.90;;;;;;5050051;28;20115;-67
2023/08/28 10:10:32;;;;;;;4.70;3.00;;;21.40;99.90;;;;;;5041511;28;20048;-70
2023/08/28 10:13:00;;;;;;;5.88;4.28;;;21.40;1.00;;;;;;5042370;28;20044;-69
2023/08/28 10:15:27;;;;;;;6.53;3.10;;;21.40;1.00;;;;;;5046252;28;20025;-69
2023/08/28 10:17:54;;;;;;;5.18;2.88;;;21.40;99.90;;;;;;5045580;28;20041;-68
2023/08/28 10:20:22;;;;;;;2.80;2.33;;;21.20;1.00;;;;;;5045898;28;20029;-68
2023/08/28 10:22:49;;;;;;;6.97;3.22;;;21.40;52.90;;;;;;5037221;28;20082;-68
2023/08/28 10:25:17;;;;;;;3.42;2.72;;;21.20;21.20;;;;;;5042254;28;20026;-67
2023/08/28 10:27:43;;;;;;;6.25;3.20;;;20.80;1.00;;;;;;5045327;28;20025;-67
2023/08/28 10:30:11;;;;;;;5.80;2.90;;;20.40;99.90;;;;;;5042874;28;20551;-67
2023/08/28 10:32:38;;;;;;;3.80;2.53;;;20.10;99.90;;;;;;5056277;28;20063;-67
2023/08/28 10:35:05;;;;;;;4.47;3.35;;;20.30;83.60;;;;;;5040906;28;20025;-67
2023/08/28 10:37:32;;;;;;;3.95;2.78;;;20.70;99.90;;;;;;5045259;28;20048;-67
2023/08/28 10:39:57;;;;;;;3.67;2.50;;;20.50;1.00;;;;;;5044350;28;20116;-67
2023/08/28 10:42:26;;;;;;;4.55;2.63;;;20.70;63.30;;;;;;5048338;28;20155;-67
2023/08/28 10:44:52;;;;;;;5.05;2.80;;;21.20;99.90;;;;;;5044495;28;20162;-68
2023/08/28 10:47:19;;;;;;;4.00;2.60;;;21.60;1.00;;;;;;5049648;28;20115;-67
2023/08/28 10:49:45;;;;;;;3.95;3.28;;;22.10;99.90;;;;;;5051485;28;20034;-67
2023/08/28 10:52:11;;;;;;;4.40;3.55;;;22.50;1.00;;;;;;5048167;28;20067;-67
2023/08/28 10:54:39;;;;;;;4.88;3.22;;;22.50;1.00;;;;;;5037069;28;20103;-68
2023/08/28 10:57:10;;;;;;;3.38;2.80;;;22.60;1.00;;;;;;5030905;28;20411;-76
2023/08/28 10:59:43;;;;;;;4.50;2.72;;;22.40;99.90;;;;;;5031927;28;20025;-69
2023/08/28 11:02:09;;;;;;;3.78;2.90;;;22.30;1.00;;;;;;5030934;28;20022;-68
2023/08/28 11:04:37;;;;;;;3.40;3.10;;;21.90;99.90;;;;;;5030689;28;20028;-68
2023/08/28 11:07:04;;;;;;;3.95;3.42;;;22.30;1.00;;;;;;5029169;28;20057;-69
2023/08/28 11:12:15;;;;;;;5.57;2.95;;;22.60;99.90;;;;;;5120141;27;21272;-68
2023/08/28 11:14:58;;;;;;;5.65;2.60;;;22.70;99.90;;;;;;5108434;28;20039;-68
2023/08/28 11:17:25;;;;;;;3.60;2.50;;;22.70;99.90;;;;;;5106795;28;20031;-67
2023/08/28 11:19:59;;;;;;;3.95;2.50;;;22.50;99.90;;;;;;5102224;28;20024;-67
2023/08/28 11:22:42;;;;;;;3.95;2.42;;;22.30;1.00;;;;;;5101656;28;20042;-67
2023/08/28 11:25:11;;;;;;;3.23;2.87;;;22.60;99.90;;;;;;5101505;28;20389;-67
2023/08/28 11:30:17;;;;;;;5.05;2.47;;;22.70;99.90;;;;;;5055015;27;20131;-69
2023/08/28 11:32:45;;;;;;;5.57;2.50;;;22.40;99.90;;;;;;5020176;28;20479;-67
2023/08/28 11:35:14;;;;;;;3.53;2.35;;;22.30;99.90;;;;;;5020066;28;20125;-69
2023/08/28 11:37:42;;;;;;;4.15;3.08;;;22.10;99.90;;;;;;5020644;28;20104;-68
2023/08/28 11:40:09;;;;;;;5.43;2.08;;;22.70;1.00;;;;;;5038948;28;20092;-69
2023/08/28 11:42:36;;;;;;;2.75;1.98;;;22.70;99.90;;;;;;5031197;28;20510;-68
2023/08/28 11:45:04;;;;;;;4.00;2.20;;;22.70;99.90;;;;;;5022222;28;20104;-68
2023/08/28 11:47:32;;;;;;;4.07;2.47;;;22.50;1.00;;;;;;5017383;28;20026;-68
2023/08/28 11:49:59;;;;;;;2.45;2.25;;;22.60;1.00;;;;;;5015094;28;20476;-68
2023/08/28 11:52:25;;;;;;;3.83;2.42;;;22.00;1.00;;;;;;5019015;28;20031;-68
2023/08/28 11:54:57;;;;;;;2.40;2.15;;;21.60;5.70;;;;;;5022770;28;20498;-68
2023/08/28 11:57:25;;;;;;;3.90;2.35;;;21.80;99.90;;;;;;5016057;28;20487;-68
2023/08/28 11:59:52;;;;;;;2.72;2.10;;;22.40;99.90;;;;;;5016685;28;20032;-67
2023/08/28 12:02:19;;;;;;;4.20;2.95;;;22.60;99.90;;;;;;5019204;28;20360;-65
2023/08/28 12:04:48;;;;;;;3.10;2.72;;;22.60;1.00;;;;;;5018794;28;20025;-65
2023/08/28 12:07:16;;;;;;;3.58;2.22;;;23.00;1.00;;;;;;5021668;28;20040;-67
2023/08/28 12:09:43;;;;;;;5.78;2.63;;;23.20;10.40;;;;;;5022888;28;20045;-67
2023/08/28 12:12:08;;;;;;;4.38;2.70;;;22.60;99.90;;;;;;5024284;28;20095;-66
2023/08/28 12:14:34;;;;;;;2.92;2.08;;;21.90;1.00;;;;;;5021101;28;20378;-67
2023/08/28 12:17:00;;;;;;;4.00;1.98;;;22.20;99.90;;;;;;5013946;28;20033;-67
2023/08/28 12:19:26;;;;;;;1.77;1.65;;;22.40;99.90;;;;;;5051875;28;20064;-67
2023/08/28 12:21:51;;;;;;;3.35;2.22;;;22.40;99.90;;;;;;5017866;28;20517;-67
2023/08/28 12:24:17;;;;;;;4.40;2.47;;;22.50;37.80;;;;;;5015690;28;20386;-66
2023/08/28 12:26:43;;;;;;;5.10;2.40;;;22.60;99.90;;;;;;5024659;28;20026;-67
2023/08/28 12:29:09;;;;;;;3.60;2.20;;;22.50;1.00;;;;;;5021536;28;20095;-66
2023/08/28 12:31:36;;;;;;;3.85;2.50;;;22.40;1.00;;;;;;5021356;28;20026;-66
2023/08/28 12:34:10;;;;;;;3.60;2.47;;;22.30;99.90;;;;;;5020867;28;20053;-66
2023/08/28 12:36:39;;;;;;;4.00;2.30;;;22.20;99.90;;;;;;5018512;28;20487;-66
2023/08/28 12:39:07;;;;;;;3.83;1.90;;;22.50;99.90;;;;;;5021861;28;20117;-67
2023/08/28 12:41:35;;;;;;;3.22;2.40;;;23.30;99.90;;;;;;5011717;28;20104;-66
2023/08/28 12:44:00;;;;;;;2.92;2.30;;;23.80;99.90;;;;;;5010621;28;20030;-66
2023/08/28 12:46:26;;;;;;;4.03;2.30;;;23.60;99.90;;;;;;5007405;28;20034;-67
2023/08/28 12:48:53;;;;;;;4.03;2.10;;;23.30;99.90;;;;;;5002566;28;20125;-67